createdAt,value
2018-03-22T00:00:44.549Z,96.70
2018-03-22T00:03:13.867Z,96.60
2018-03-22T00:05:42.941Z,97.10
2018-03-22T00:08:11.163Z,96.70
2018-03-22T00:10:40.731Z,96.70
2018-03-22T00:13:09.110Z,96.70
2018-03-22T00:15:37.333Z,96.80
2018-03-22T00:18:05.704Z,96.50
2018-03-22T00:20:36.704Z,96.40
2018-03-22T00:23:05.033Z,96.30
2018-03-22T00:25:34.017Z,96.70
2018-03-22T00:28:02.237Z,96.40
2018-03-22T00:30:30.464Z,96.50
2018-03-22T00:32:59.316Z,96.40
2018-03-22T00:35:27.587Z,96.40
2018-03-22T00:37:55.897Z,96.40
2018-03-22T00:40:24.140Z,96.40
2018-03-22T00:42:53.383Z,96.30
2018-03-22T00:45:21.742Z,96.30
2018-03-22T00:47:50.000Z,96.20
2018-03-22T00:50:19.129Z,96.30
2018-03-22T00:52:48.314Z,96.30
2018-03-22T00:55:16.767Z,96.30
2018-03-22T00:57:45.029Z,96.30
2018-03-22T01:00:13.401Z,96.30
2018-03-22T01:02:41.741Z,96.40
2018-03-22T01:05:10.318Z,96.30
2018-03-22T01:07:38.686Z,96.40
2018-03-22T01:10:07.070Z,96.40
2018-03-22T01:12:35.404Z,96.20
2018-03-22T01:15:09.737Z,96.30
2018-03-22T01:17:56.749Z,96.20
2018-03-22T01:20:31.373Z,96.30
2018-03-22T01:23:12.448Z,96.30
2018-03-22T01:25:40.868Z,96.30
2018-03-22T01:28:25.976Z,96.30
2018-03-22T01:31:12.735Z,96.20
2018-03-22T01:33:45.028Z,96.20
2018-03-22T01:36:19.607Z,96.20
2018-03-22T01:38:50.455Z,96.20
2018-03-22T01:41:24.409Z,96.00
2018-03-22T01:43:57.407Z,96.00
2018-03-22T01:46:27.425Z,95.90
2018-03-22T01:48:57.366Z,95.90
2018-03-22T01:51:27.297Z,95.80
2018-03-22T01:53:57.067Z,95.60
2018-03-22T01:56:25.281Z,95.50
2018-03-22T01:58:54.289Z,95.70
2018-03-22T02:01:22.523Z,95.60
2018-03-22T02:03:50.725Z,95.80
2018-03-22T02:06:19.684Z,95.80
2018-03-22T02:08:47.877Z,95.80
2018-03-22T02:11:16.145Z,95.80
2018-03-22T02:13:44.357Z,95.70
2018-03-22T02:16:13.314Z,95.70
2018-03-22T02:18:41.552Z,95.70
2018-03-22T02:21:11.068Z,95.90
2018-03-22T02:23:39.322Z,95.60
2018-03-22T02:26:08.492Z,95.60
2018-03-22T02:28:36.722Z,95.60
2018-03-22T02:31:06.296Z,95.70
2018-03-22T02:33:34.607Z,95.50
2018-03-22T02:36:02.877Z,95.60
2018-03-22T02:38:31.127Z,95.60
2018-03-22T02:40:59.356Z,95.50
2018-03-22T02:43:27.569Z,95.70
2018-03-22T02:45:56.815Z,95.70
2018-03-22T02:48:26.136Z,95.60
2018-03-22T02:50:54.409Z,95.50
2018-03-22T02:53:23.488Z,95.10
2018-03-22T02:55:52.530Z,95.10
2018-03-22T02:58:20.793Z,95.10
2018-03-22T03:00:49.961Z,95.10
2018-03-22T03:03:18.374Z,95.00
2018-03-22T03:05:47.370Z,95.00
2018-03-22T03:08:16.397Z,95.30
2018-03-22T03:10:45.389Z,95.00
2018-03-22T03:13:14.379Z,95.00
2018-03-22T03:15:42.682Z,95.00
2018-03-22T03:18:11.074Z,95.00
2018-03-22T03:20:39.595Z,95.10
2018-03-22T03:23:08.633Z,95.10
2018-03-22T03:25:37.853Z,95.10
2018-03-22T03:28:06.113Z,95.10
2018-03-22T03:30:34.348Z,95.10
2018-03-22T03:33:02.690Z,95.20
2018-03-22T03:35:31.091Z,95.20
2018-03-22T03:37:59.577Z,95.20
2018-03-22T03:40:27.930Z,95.20
2018-03-22T03:42:56.777Z,95.30
2018-03-22T03:45:25.794Z,95.50
2018-03-22T03:47:54.083Z,95.50
2018-03-22T03:50:22.336Z,95.50
2018-03-22T03:52:50.761Z,95.60
2018-03-22T03:55:19.020Z,95.80
2018-03-22T03:57:47.772Z,96.00
2018-03-22T04:00:17.019Z,96.10
2018-03-22T04:02:45.409Z,96.10
2018-03-22T04:05:13.883Z,96.20
2018-03-22T04:07:42.156Z,96.10
2018-03-22T04:10:10.418Z,96.20
2018-03-22T04:12:38.713Z,96.20
2018-03-22T04:15:06.963Z,96.10
2018-03-22T04:17:35.235Z,95.90
2018-03-22T04:20:03.480Z,95.90
2018-03-22T04:22:32.432Z,95.90
2018-03-22T04:25:01.104Z,95.80
2018-03-22T04:27:29.958Z,96.10
2018-03-22T04:29:59.336Z,97.20
2018-03-22T04:32:27.648Z,96.80
2018-03-22T04:34:55.992Z,96.80
2018-03-22T04:37:25.112Z,97.20
2018-03-22T04:39:54.288Z,97.60
2018-03-22T04:42:23.402Z,97.60
2018-03-22T04:44:52.564Z,97.80
2018-03-22T04:47:20.814Z,97.80
2018-03-22T04:49:49.342Z,98.10
2018-03-22T04:52:18.525Z,98.10
2018-03-22T04:54:46.903Z,98.10
2018-03-22T04:57:15.243Z,98.20
2018-03-22T04:59:44.481Z,98.30
2018-03-22T05:02:13.400Z,98.30
2018-03-22T05:04:41.857Z,98.90
2018-03-22T05:07:10.105Z,99.00
2018-03-22T05:09:39.115Z,99.30
2018-03-22T05:12:07.404Z,99.30
2018-03-22T05:14:35.787Z,99.30
2018-03-22T05:17:04.077Z,99.30
2018-03-22T05:19:32.404Z,99.50
2018-03-22T05:22:01.554Z,99.80
2018-03-22T05:24:29.846Z,99.80
2018-03-22T05:26:58.201Z,99.90
2018-03-22T05:29:26.593Z,99.90
2018-03-22T05:31:55.111Z,99.90
2018-03-22T05:34:23.449Z,99.90
2018-03-22T05:36:51.818Z,99.90
2018-03-22T05:39:20.115Z,99.90
2018-03-22T05:41:48.580Z,99.90
2018-03-22T05:44:16.839Z,99.90
2018-03-22T05:46:45.702Z,99.90
2018-03-22T05:49:13.983Z,99.90
2018-03-22T05:51:42.265Z,99.90
2018-03-22T05:54:11.296Z,99.90
2018-03-22T05:56:40.427Z,99.90
2018-03-22T05:59:08.665Z,99.90
2018-03-22T06:01:36.884Z,99.90
2018-03-22T06:04:05.111Z,99.90
2018-03-22T06:06:33.507Z,99.90
2018-03-22T06:09:01.733Z,99.90
2018-03-22T06:11:30.260Z,99.90
2018-03-22T06:13:58.643Z,99.90
2018-03-22T06:16:26.923Z,99.90
2018-03-22T06:18:55.207Z,99.90
2018-03-22T06:21:23.462Z,99.90
2018-03-22T06:23:51.748Z,99.90
2018-03-22T06:26:19.953Z,99.90
2018-03-22T06:28:48.300Z,99.90
2018-03-22T06:31:16.710Z,99.90
2018-03-22T06:33:45.109Z,99.90
2018-03-22T06:36:13.443Z,99.90
2018-03-22T06:38:42.530Z,99.90
2018-03-22T06:41:10.779Z,99.90
2018-03-22T06:43:39.845Z,99.90
2018-03-22T06:46:08.091Z,99.90
2018-03-22T06:48:37.298Z,99.90
2018-03-22T06:51:06.563Z,99.90
2018-03-22T06:53:35.616Z,99.90
2018-03-22T06:56:04.791Z,99.90
2018-03-22T06:58:33.024Z,99.90
2018-03-22T07:01:01.649Z,99.90
2018-03-22T07:03:30.035Z,99.90
2018-03-22T07:05:58.335Z,99.90
2018-03-22T07:08:26.595Z,99.90
2018-03-22T07:10:54.827Z,99.90
2018-03-22T07:13:23.857Z,99.90
2018-03-22T07:15:52.044Z,99.90
2018-03-22T07:18:20.434Z,99.90
2018-03-22T07:20:50.431Z,99.90
2018-03-22T07:23:19.491Z,99.90
2018-03-22T07:25:47.815Z,99.90
2018-03-22T07:28:16.286Z,99.90
2018-03-22T07:30:44.560Z,99.90
2018-03-22T07:33:12.893Z,99.90
2018-03-22T07:35:41.995Z,99.90
2018-03-22T07:38:10.971Z,99.90
2018-03-22T07:40:40.260Z,99.90
2018-03-22T07:43:14.197Z,99.90
2018-03-22T07:45:42.696Z,99.90
2018-03-22T07:48:11.102Z,99.90
2018-03-22T07:50:39.514Z,99.90
2018-03-22T07:53:07.759Z,99.90
2018-03-22T07:55:36.910Z,99.90
2018-03-22T07:58:06.056Z,99.90
2018-03-22T08:00:34.439Z,99.90
2018-03-22T08:03:02.766Z,99.90
2018-03-22T08:05:31.136Z,99.90
2018-03-22T08:08:00.188Z,99.90
2018-03-22T08:10:29.076Z,99.90
2018-03-22T08:12:57.393Z,99.90
2018-03-22T08:15:25.703Z,99.90
2018-03-22T08:17:54.032Z,99.90
2018-03-22T08:20:22.314Z,99.90
2018-03-22T08:22:50.710Z,99.90
2018-03-22T08:25:19.816Z,99.90
2018-03-22T08:27:48.882Z,99.90
2018-03-22T08:30:17.355Z,99.90
2018-03-22T08:32:45.658Z,99.90
2018-03-22T08:35:14.970Z,99.90
2018-03-22T08:37:43.222Z,99.90
2018-03-22T08:40:11.523Z,99.90
2018-03-22T08:42:39.887Z,99.90
2018-03-22T08:45:08.913Z,99.90
2018-03-22T08:47:38.052Z,99.90
2018-03-22T08:50:06.507Z,99.90
2018-03-22T08:52:34.832Z,99.90
2018-03-22T08:55:03.098Z,99.90
2018-03-22T08:57:32.409Z,99.90
2018-03-22T09:00:00.637Z,99.90
2018-03-22T09:02:29.878Z,99.90
2018-03-22T09:04:58.901Z,99.90
2018-03-22T09:07:27.215Z,99.90
2018-03-22T09:09:55.634Z,99.90
2018-03-22T09:12:23.894Z,99.90
2018-03-22T09:14:52.142Z,99.90
2018-03-22T09:17:21.151Z,99.90
2018-03-22T09:19:49.489Z,99.90
2018-03-22T09:22:18.492Z,99.90
2018-03-22T09:24:46.823Z,99.90
2018-03-22T09:27:15.302Z,99.90
2018-03-22T09:29:43.585Z,99.90
2018-03-22T09:32:12.003Z,99.90
2018-03-22T09:34:40.376Z,99.90
2018-03-22T09:37:09.481Z,99.90
2018-03-22T09:39:37.757Z,99.90
2018-03-22T09:42:06.997Z,99.90
2018-03-22T09:44:35.301Z,99.90
2018-03-22T09:47:03.901Z,99.90
2018-03-22T09:49:32.706Z,99.90
2018-03-22T09:52:01.188Z,99.90
2018-03-22T09:54:29.556Z,99.90
2018-03-22T09:56:58.007Z,99.90
2018-03-22T09:59:27.020Z,99.90
2018-03-22T10:01:56.144Z,99.90
2018-03-22T10:04:25.232Z,99.90
2018-03-22T10:06:53.781Z,99.90
2018-03-22T10:09:22.186Z,99.90
2018-03-22T10:11:50.474Z,99.90
2018-03-22T10:14:19.504Z,99.90
2018-03-22T10:16:48.499Z,99.90
2018-03-22T10:19:16.838Z,99.90
2018-03-22T10:21:45.061Z,99.90
2018-03-22T10:24:13.275Z,99.90
2018-03-22T10:26:41.528Z,99.90
2018-03-22T10:29:09.724Z,99.90
2018-03-22T10:31:38.803Z,99.90
2018-03-22T10:34:07.151Z,99.90
2018-03-22T10:36:36.195Z,99.90
2018-03-22T10:39:04.506Z,99.90
2018-03-22T10:41:33.508Z,99.90
2018-03-22T10:44:02.528Z,99.90
2018-03-22T10:46:31.601Z,99.90
2018-03-22T10:49:00.614Z,99.90
2018-03-22T10:51:29.621Z,99.90
2018-03-22T10:53:58.601Z,99.90
2018-03-22T10:56:26.797Z,99.90
2018-03-22T10:58:55.007Z,99.90
2018-03-22T11:01:28.823Z,99.90
2018-03-22T11:03:58.605Z,99.90
2018-03-22T11:06:26.799Z,99.90
2018-03-22T11:08:55.108Z,99.90
2018-03-22T11:11:23.509Z,99.90
2018-03-22T11:13:51.963Z,99.90
2018-03-22T11:16:21.038Z,99.90
2018-03-22T11:18:49.372Z,99.90
2018-03-22T11:21:17.799Z,99.90
2018-03-22T11:23:46.100Z,99.90
2018-03-22T11:26:15.213Z,99.90
2018-03-22T11:28:44.262Z,99.90
2018-03-22T11:31:12.595Z,99.90
2018-03-22T11:33:41.054Z,99.90
2018-03-22T11:36:09.286Z,99.90
2018-03-22T11:38:37.638Z,99.90
2018-03-22T11:41:06.766Z,99.90
2018-03-22T11:43:35.096Z,99.90
2018-03-22T11:46:04.799Z,99.90
2018-03-22T11:48:33.234Z,99.90
2018-03-22T11:51:01.488Z,99.90
2018-03-22T11:53:30.775Z,99.90
2018-03-22T11:55:59.059Z,99.90
2018-03-22T11:58:28.093Z,99.90
2018-03-22T12:00:57.173Z,99.90
2018-03-22T12:03:25.456Z,99.90
2018-03-22T12:05:53.732Z,99.90
2018-03-22T12:08:22.756Z,99.90
2018-03-22T12:10:51.052Z,99.90
2018-03-22T12:13:19.311Z,99.90
2018-03-22T12:15:47.668Z,99.90
2018-03-22T12:18:15.907Z,99.90
2018-03-22T12:20:44.998Z,99.90
2018-03-22T12:23:14.141Z,99.90
2018-03-22T12:25:42.652Z,99.90
2018-03-22T12:28:10.889Z,99.90
2018-03-22T12:30:39.193Z,99.90
2018-03-22T12:33:08.285Z,99.90
2018-03-22T12:35:37.013Z,99.90
2018-03-22T12:38:06.271Z,99.90
2018-03-22T12:40:34.564Z,99.90
2018-03-22T12:43:02.799Z,99.90
2018-03-22T12:45:31.427Z,99.90
2018-03-22T12:47:59.695Z,99.90
2018-03-22T12:50:28.261Z,99.90
2018-03-22T12:52:57.298Z,99.90
2018-03-22T12:55:25.569Z,99.90
2018-03-22T12:57:53.797Z,99.90
2018-03-22T13:00:22.123Z,99.90
2018-03-22T13:02:50.392Z,99.90
2018-03-22T13:05:18.703Z,99.90
2018-03-22T13:07:47.713Z,99.90
2018-03-22T13:10:16.019Z,99.90
2018-03-22T13:12:44.378Z,99.90
2018-03-22T13:15:12.628Z,99.90
2018-03-22T13:17:41.071Z,99.90
2018-03-22T13:20:09.294Z,99.90
2018-03-22T13:22:38.368Z,99.90
2018-03-22T13:25:07.481Z,99.90
2018-03-22T13:27:36.562Z,99.90
2018-03-22T13:30:05.634Z,99.90
2018-03-22T13:32:33.999Z,99.90
2018-03-22T13:35:02.717Z,99.90
2018-03-22T13:37:31.192Z,99.90
2018-03-22T13:40:00.286Z,99.90
2018-03-22T13:42:28.645Z,99.90
2018-03-22T13:44:57.047Z,99.90
2018-03-22T13:47:25.288Z,99.90
2018-03-22T13:49:54.826Z,99.90
2018-03-22T13:52:23.878Z,99.90
2018-03-22T13:54:52.244Z,99.90
2018-03-22T13:57:21.269Z,99.90
2018-03-22T13:59:49.674Z,99.90
2018-03-22T14:02:18.717Z,99.90
2018-03-22T14:04:47.728Z,99.90
2018-03-22T14:07:16.056Z,99.90
2018-03-22T14:09:44.533Z,99.90
2018-03-22T14:12:12.833Z,99.90
2018-03-22T14:14:41.879Z,99.90
2018-03-22T14:17:10.151Z,99.90
2018-03-22T14:19:38.405Z,99.90
2018-03-22T14:22:07.565Z,99.90
2018-03-22T14:24:35.833Z,99.90
2018-03-22T14:27:04.887Z,99.90
2018-03-22T14:29:33.157Z,99.90
2018-03-22T14:32:01.417Z,99.90
2018-03-22T14:34:30.471Z,99.90
2018-03-22T14:37:00.237Z,99.90
2018-03-22T14:39:29.365Z,99.90
2018-03-22T14:41:58.549Z,99.90
2018-03-22T14:44:26.861Z,99.90
2018-03-22T14:46:55.223Z,99.90
2018-03-22T14:49:23.449Z,99.90
2018-03-22T14:51:52.602Z,99.90
2018-03-22T14:54:20.869Z,99.90
2018-03-22T14:56:49.084Z,99.90
2018-03-22T14:59:18.112Z,99.90
2018-03-22T15:01:47.102Z,99.90
2018-03-22T15:04:16.122Z,99.90
2018-03-22T15:06:44.344Z,99.90
2018-03-22T15:09:12.598Z,99.90
2018-03-22T15:11:42.655Z,99.90
2018-03-22T15:14:12.112Z,99.90
2018-03-22T15:16:41.952Z,99.90
2018-03-22T15:19:10.518Z,99.90
2018-03-22T15:21:38.826Z,99.90
2018-03-22T15:24:07.151Z,99.90
2018-03-22T15:26:35.406Z,99.90
2018-03-22T15:29:04.500Z,99.90
2018-03-22T15:31:33.028Z,99.90
2018-03-22T15:34:02.263Z,99.90
2018-03-22T15:36:30.508Z,99.90
2018-03-22T15:38:58.709Z,99.90
2018-03-22T15:41:27.022Z,99.90
2018-03-22T15:43:56.052Z,99.90
2018-03-22T15:46:24.319Z,99.90
2018-03-22T15:48:52.591Z,99.90
2018-03-22T15:51:20.840Z,99.90
2018-03-22T15:53:49.140Z,99.90
2018-03-22T15:56:17.514Z,99.90
2018-03-22T15:58:45.838Z,99.90
2018-03-22T16:01:14.216Z,99.90
2018-03-22T16:03:43.140Z,99.90
2018-03-22T16:06:12.225Z,99.90
2018-03-22T16:08:40.570Z,99.90
2018-03-22T16:11:08.955Z,99.90
2018-03-22T16:13:37.279Z,99.90
2018-03-22T16:16:06.232Z,99.90
2018-03-22T16:18:34.624Z,99.90
2018-03-22T16:21:02.990Z,99.90
2018-03-22T16:23:32.192Z,99.90
2018-03-22T16:26:00.562Z,99.90
2018-03-22T16:28:28.948Z,99.90
2018-03-22T16:30:57.167Z,99.90
2018-03-22T16:33:26.250Z,99.90
2018-03-22T16:36:03.194Z,99.90
2018-03-22T16:38:31.686Z,99.90
2018-03-22T16:41:00.072Z,99.90
2018-03-22T16:43:28.479Z,99.90
2018-03-22T16:45:57.566Z,99.90
2018-03-22T16:48:27.458Z,99.90
2018-03-22T16:50:55.757Z,99.90
2018-03-22T16:53:24.082Z,99.90
2018-03-22T16:55:52.489Z,99.90
2018-03-22T16:58:21.699Z,99.90
2018-03-22T17:00:50.082Z,99.90
2018-03-22T17:03:18.428Z,99.90
2018-03-22T17:05:46.728Z,99.90
2018-03-22T17:08:15.112Z,99.90
2018-03-22T17:10:43.489Z,99.90
2018-03-22T17:13:11.756Z,99.90
2018-03-22T17:15:40.058Z,99.90
2018-03-22T17:18:08.522Z,99.90
2018-03-22T17:20:36.763Z,99.90
2018-03-22T17:23:05.128Z,99.90
2018-03-22T17:25:33.397Z,99.90
2018-03-22T17:28:01.715Z,99.90
2018-03-22T17:30:30.004Z,99.90
2018-03-22T17:32:58.279Z,99.90
2018-03-22T17:35:26.615Z,99.90
2018-03-22T17:37:55.636Z,99.90
2018-03-22T17:40:23.898Z,99.90
2018-03-22T17:42:52.920Z,99.90
2018-03-22T17:45:21.204Z,99.90
2018-03-22T17:47:49.610Z,99.90
2018-03-22T17:50:17.880Z,99.90
2018-03-22T17:52:46.243Z,99.90
2018-03-22T17:55:14.479Z,99.90
2018-03-22T17:57:43.679Z,99.90
2018-03-22T18:00:12.721Z,99.90
2018-03-22T18:02:41.056Z,99.90
2018-03-22T18:05:10.033Z,99.90
2018-03-22T18:07:40.042Z,99.90
2018-03-22T18:10:08.401Z,99.90
2018-03-22T18:12:36.733Z,99.90
2018-03-22T18:15:05.755Z,99.90
2018-03-22T18:17:34.016Z,99.90
2018-03-22T18:20:02.251Z,99.90
2018-03-22T18:22:31.275Z,99.90
2018-03-22T18:25:00.274Z,99.90
2018-03-22T18:27:29.281Z,99.90
2018-03-22T18:29:57.625Z,99.90
2018-03-22T18:32:26.777Z,99.90
2018-03-22T18:34:55.052Z,99.90
2018-03-22T18:37:23.791Z,99.90
2018-03-22T18:39:52.839Z,99.90
2018-03-22T18:42:21.485Z,99.90
2018-03-22T18:44:50.231Z,99.90
2018-03-22T18:47:18.604Z,99.90
2018-03-22T18:49:48.724Z,99.90
2018-03-22T18:52:16.996Z,99.90
2018-03-22T18:54:45.302Z,99.90
2018-03-22T18:57:13.573Z,99.90
2018-03-22T18:59:41.882Z,99.90
2018-03-22T19:02:11.250Z,99.90
2018-03-22T19:04:40.329Z,99.90
2018-03-22T19:07:09.206Z,99.90
2018-03-22T19:09:37.714Z,99.90
2018-03-22T19:12:06.068Z,99.90
2018-03-22T19:14:34.408Z,99.90
2018-03-22T19:17:03.409Z,99.90
2018-03-22T19:19:32.656Z,99.90
2018-03-22T19:22:00.898Z,99.90
2018-03-22T19:24:29.901Z,99.90
2018-03-22T19:26:58.154Z,99.90
2018-03-22T19:29:27.159Z,99.90
2018-03-22T19:31:55.541Z,99.90
2018-03-22T19:34:23.877Z,99.90
2018-03-22T19:36:52.880Z,99.90
2018-03-22T19:39:21.249Z,99.90
2018-03-22T19:41:49.616Z,99.90
2018-03-22T19:44:17.883Z,99.90
2018-03-22T19:46:46.233Z,99.90
2018-03-22T19:49:15.575Z,99.90
2018-03-22T19:51:44.239Z,99.90
2018-03-22T19:54:12.600Z,99.90
2018-03-22T19:59:15.661Z,99.90
2018-03-22T20:01:43.955Z,99.90
2018-03-22T20:04:13.432Z,99.90
2018-03-22T20:06:41.804Z,99.90
2018-03-22T20:09:12.327Z,99.90
2018-03-22T20:11:40.592Z,99.90
2018-03-22T20:14:08.872Z,99.90
2018-03-22T20:19:37.295Z,99.90
2018-03-22T20:22:05.656Z,99.90
2018-03-22T20:24:34.058Z,99.20
2018-03-22T20:27:02.325Z,98.80
2018-03-22T20:29:30.609Z,98.20
2018-03-22T20:31:59.804Z,98.00
2018-03-22T20:34:28.951Z,98.10
2018-03-22T20:36:57.255Z,98.10
2018-03-22T20:39:25.621Z,97.90
2018-03-22T20:41:53.873Z,98.00
2018-03-22T20:44:22.191Z,98.20
2018-03-22T20:46:51.338Z,98.10
2018-03-22T20:49:19.674Z,98.20
2018-03-22T20:51:48.001Z,98.40
2018-03-22T20:54:17.476Z,98.30
2018-03-22T20:56:45.803Z,98.30
2018-03-22T20:59:14.310Z,98.20
2018-03-22T21:01:42.614Z,98.20
2018-03-22T21:04:10.934Z,98.30
2018-03-22T21:06:39.971Z,98.10
2018-03-22T21:09:08.365Z,98.10
2018-03-22T21:11:36.746Z,97.60
2018-03-22T21:14:05.035Z,97.80
2018-03-22T21:16:33.712Z,97.80
2018-03-22T21:19:01.962Z,98.10
2018-03-22T21:21:30.300Z,98.00
2018-03-22T21:23:58.646Z,97.60
2018-03-22T21:26:26.868Z,97.70
2018-03-22T21:28:56.670Z,97.80
2018-03-22T21:31:26.628Z,97.80
2018-03-22T21:33:56.577Z,98.00
2018-03-22T21:36:25.156Z,98.00
2018-03-22T21:38:56.434Z,98.10
2018-03-22T21:41:25.494Z,97.80
2018-03-22T21:44:05.565Z,97.70
2018-03-22T21:46:34.244Z,97.70
2018-03-22T21:49:02.532Z,97.50
2018-03-22T21:51:30.824Z,97.90
2018-03-22T21:53:59.853Z,97.90
2018-03-22T21:56:29.001Z,97.70
2018-03-22T21:58:57.430Z,98.00
2018-03-22T22:01:25.873Z,97.20
2018-03-22T22:03:54.539Z,97.40
2018-03-22T22:06:22.871Z,97.20
2018-03-22T22:08:51.953Z,97.60
2018-03-22T22:11:20.297Z,97.60
2018-03-22T22:13:48.573Z,97.30
2018-03-22T22:16:16.825Z,97.40
2018-03-22T22:18:45.412Z,97.60
2018-03-22T22:21:14.267Z,97.40
2018-03-22T22:23:43.335Z,97.70
2018-03-22T22:26:12.515Z,97.80
2018-03-22T22:28:40.901Z,97.60
2018-03-22T22:31:09.159Z,97.60
2018-03-22T22:33:37.583Z,97.50
2018-03-22T22:36:06.767Z,97.40
2018-03-22T22:38:35.138Z,97.40
2018-03-22T22:41:03.520Z,97.30
2018-03-22T22:43:31.998Z,97.40
2018-03-22T22:46:00.490Z,97.20
2018-03-22T22:48:28.863Z,97.00
2018-03-22T22:50:57.128Z,97.10
2018-03-22T22:53:25.431Z,97.10
2018-03-22T22:55:53.740Z,97.00
2018-03-22T22:58:23.698Z,97.00
2018-03-22T23:00:52.916Z,97.20
2018-03-22T23:03:21.235Z,97.10
2018-03-22T23:05:49.668Z,97.20
2018-03-22T23:08:17.960Z,97.20
2018-03-22T23:10:46.315Z,97.10
2018-03-22T23:13:14.596Z,96.90
2018-03-22T23:15:43.118Z,96.90
2018-03-22T23:18:12.142Z,97.00
2018-03-22T23:20:40.886Z,97.00
2018-03-22T23:23:09.186Z,97.50
2018-03-22T23:25:38.190Z,97.80
2018-03-22T23:28:07.228Z,97.00
2018-03-22T23:30:35.552Z,97.20
2018-03-22T23:33:03.931Z,97.10
2018-03-22T23:35:32.228Z,96.80
2018-03-22T23:38:01.478Z,97.10
2018-03-22T23:40:29.725Z,97.00
2018-03-22T23:42:58.754Z,96.70
2018-03-22T23:45:27.445Z,96.70
2018-03-22T23:47:55.707Z,97.00
2018-03-22T23:50:24.864Z,96.40
2018-03-22T23:52:54.412Z,96.40
2018-03-22T23:55:22.793Z,96.40
2018-03-22T23:57:51.092Z,96.60
